Time;durP1;ratioP1;P1;durP2;ratioP2;P2;SDS_P1;SDS_P2;PMS_P1;PMS_P2;Temp;Humidity;BMP_temperature;BMP_pressure;BME280_temperature;BME280_humidity;BME280_pressure;Samples;Min_cycle;Max_cycle;Signal;HPM_P1;HPM_P2
2022/03/04 00:00:21;;;;;;;24.90;14.70;;;;;;;;;;5057370;28;20428;-77
2022/03/04 00:02:47;;;;;;;25.87;14.60;;;;;;;;;;5056326;28;20401;-77
2022/03/04 00:05:13;;;;;;;23.67;15.30;;;;;;;;;;5054199;28;20451;-77
2022/03/04 00:07:39;;;;;;;24.23;14.33;;;;;;;;;;5055439;28;20874;-77
2022/03/04 00:10:05;;;;;;;27.10;14.90;;;;;;;;;;5055657;28;20448;-77
2022/03/04 00:12:32;;;;;;;22.67;13.40;;;;;;;;;;5055451;28;20406;-77
2022/03/04 00:14:58;;;;;;;22.47;14.03;;;;;;;;;;5055334;28;20773;-77
2022/03/04 00:17:24;;;;;;;28.47;15.90;;;;;;;;;;5055610;28;20856;-78
2022/03/04 00:19:50;;;;;;;28.50;14.70;;;;;;;;;;5056597;28;20398;-77
2022/03/04 00:22:16;;;;;;;26.93;14.60;;;;;;;;;;5055511;28;20398;-77
2022/03/04 00:24:42;;;;;;;23.10;14.50;;;;;;;;;;5055960;28;20409;-78
2022/03/04 00:27:08;;;;;;;27.13;14.10;;;;;;;;;;5056306;28;20428;-78
2022/03/04 00:29:34;;;;;;;26.60;15.50;;;;;;;;;;5056411;28;20401;-78
2022/03/04 00:32:00;;;;;;;22.10;14.17;;;;;;;;;;5056545;28;20412;-78
2022/03/04 00:34:26;;;;;;;24.10;14.00;;;;;;;;;;5056952;28;20409;-77
2022/03/04 00:36:52;;;;;;;24.30;16.00;;;;;;;;;;5056701;28;20972;-78
2022/03/04 00:39:19;;;;;;;23.10;14.33;;;;;;;;;;5056930;28;20452;-78
2022/03/04 00:41:45;;;;;;;24.20;15.43;;;;;;;;;;5057550;28;20413;-77
2022/03/04 00:44:11;;;;;;;27.90;16.17;;;;;;;;;;5057128;28;20398;-77
2022/03/04 00:46:37;;;;;;;22.10;13.40;;;;;;;;;;5057727;28;20413;-78
2022/03/04 00:49:04;;;;;;;26.17;16.30;;;;;;;;;;5058392;28;20816;-78
2022/03/04 00:51:30;;;;;;;27.20;15.27;;;;;;;;;;5057155;28;20769;-78
2022/03/04 00:53:56;;;;;;;24.10;14.10;;;;;;;;;;5057059;28;20394;-77
2022/03/04 00:56:22;;;;;;;19.93;13.87;;;;;;;;;;5056662;28;20852;-77
2022/03/04 00:58:48;;;;;;;25.90;14.40;;;;;;;;;;5056514;28;20877;-77
2022/03/04 01:01:16;;;;;;;23.73;14.00;;;;;;;;;;5057701;28;20394;-77
2022/03/04 01:03:42;;;;;;;25.97;15.03;;;;;;;;;;5055905;28;20402;-78
2022/03/04 01:06:08;;;;;;;25.60;14.60;;;;;;;;;;5056083;28;20397;-77
2022/03/04 01:08:34;;;;;;;22.37;14.93;;;;;;;;;;5055707;28;20921;-78
2022/03/04 01:11:00;;;;;;;23.07;15.10;;;;;;;;;;5055944;28;20433;-77
2022/03/04 01:13:27;;;;;;;25.97;13.87;;;;;;;;;;5055964;28;20455;-77
2022/03/04 01:15:54;;;;;;;27.30;14.47;;;;;;;;;;5055196;28;20398;-77
2022/03/04 01:18:21;;;;;;;19.37;13.13;;;;;;;;;;5055076;28;21068;-77
2022/03/04 01:20:47;;;;;;;26.17;15.40;;;;;;;;;;5055915;28;20433;-77
2022/03/04 01:23:13;;;;;;;22.13;13.70;;;;;;;;;;5055275;28;20389;-77
2022/03/04 01:25:39;;;;;;;27.57;14.53;;;;;;;;;;5065680;28;21036;-77
2022/03/04 01:28:05;;;;;;;23.70;13.67;;;;;;;;;;5054486;28;20427;-77
2022/03/04 01:30:31;;;;;;;22.87;13.33;;;;;;;;;;5052799;28;20409;-76
2022/03/04 01:32:57;;;;;;;22.70;13.23;;;;;;;;;;5052960;28;20413;-77
2022/03/04 01:35:24;;;;;;;24.73;13.77;;;;;;;;;;5054032;28;20967;-77
2022/03/04 01:37:50;;;;;;;25.40;14.83;;;;;;;;;;5054184;28;20461;-77
2022/03/04 01:40:16;;;;;;;20.03;13.73;;;;;;;;;;5053824;28;20443;-77
2022/03/04 01:42:42;;;;;;;24.07;15.20;;;;;;;;;;5053686;28;20405;-77
2022/03/04 01:45:09;;;;;;;28.13;14.60;;;;;;;;;;5053936;28;20394;-77
2022/03/04 01:47:35;;;;;;;23.50;13.00;;;;;;;;;;5054219;28;20421;-77
2022/03/04 01:50:02;;;;;;;28.80;15.33;;;;;;;;;;5052613;28;20467;-77
2022/03/04 01:52:28;;;;;;;24.70;14.80;;;;;;;;;;5053427;28;20405;-77
2022/03/04 01:54:54;;;;;;;23.60;14.00;;;;;;;;;;5053639;28;20406;-77
2022/03/04 01:57:20;;;;;;;24.23;14.33;;;;;;;;;;5053736;28;20449;-77
2022/03/04 01:59:46;;;;;;;26.27;14.23;;;;;;;;;;5052383;28;20433;-77
2022/03/04 02:02:13;;;;;;;21.37;13.40;;;;;;;;;;5053505;28;20405;-77
2022/03/04 02:04:39;;;;;;;23.83;14.63;;;;;;;;;;5052563;28;20406;-77
2022/03/04 02:07:05;;;;;;;25.33;14.70;;;;;;;;;;5054625;28;20474;-77
2022/03/04 02:09:31;;;;;;;26.53;14.27;;;;;;;;;;5053726;28;20417;-77
2022/03/04 02:11:57;;;;;;;25.60;15.67;;;;;;;;;;5053639;28;20401;-77
2022/03/04 02:14:23;;;;;;;21.90;14.90;;;;;;;;;;5053447;28;20444;-77
2022/03/04 02:16:53;;;;;;;27.37;15.10;;;;;;;;;;5052998;28;20432;-77
2022/03/04 02:19:20;;;;;;;28.57;15.40;;;;;;;;;;5053256;28;20782;-77
2022/03/04 02:21:53;;;;;;;22.90;14.27;;;;;;;;;;5053189;28;20405;-77
2022/03/04 02:24:22;;;;;;;21.03;13.93;;;;;;;;;;5053370;28;20819;-77
2022/03/04 02:26:48;;;;;;;25.13;14.80;;;;;;;;;;5054286;28;20467;-77
2022/03/04 02:29:14;;;;;;;24.60;15.07;;;;;;;;;;5058455;28;20433;-77
2022/03/04 02:31:40;;;;;;;24.53;15.00;;;;;;;;;;5060138;28;20917;-77
2022/03/04 02:34:06;;;;;;;26.00;14.30;;;;;;;;;;5059878;28;20402;-77
2022/03/04 02:36:32;;;;;;;24.20;14.27;;;;;;;;;;5059549;28;20796;-77
2022/03/04 02:38:58;;;;;;;26.17;13.90;;;;;;;;;;5059840;28;20443;-77
2022/03/04 02:41:24;;;;;;;31.00;16.40;;;;;;;;;;5059551;28;20402;-77
2022/03/04 02:43:51;;;;;;;27.20;13.80;;;;;;;;;;5059528;28;20393;-77
2022/03/04 02:46:17;;;;;;;23.23;14.37;;;;;;;;;;5060026;28;20408;-77
2022/03/04 02:48:43;;;;;;;25.87;15.20;;;;;;;;;;5059979;28;20401;-77
2022/03/04 02:51:09;;;;;;;24.20;14.40;;;;;;;;;;5055853;28;20764;-77
2022/03/04 02:53:35;;;;;;;25.83;14.10;;;;;;;;;;5049039;28;20410;-78
2022/03/04 02:56:01;;;;;;;26.57;14.63;;;;;;;;;;5041140;28;20433;-78
2022/03/04 02:58:27;;;;;;;26.43;13.50;;;;;;;;;;5041363;28;20448;-78
2022/03/04 03:00:53;;;;;;;21.73;13.83;;;;;;;;;;5042059;28;20894;-78
2022/03/04 03:03:19;;;;;;;18.40;13.20;;;;;;;;;;5041622;28;20429;-78
2022/03/04 03:05:45;;;;;;;23.33;13.40;;;;;;;;;;5041258;28;20490;-78
2022/03/04 03:08:12;;;;;;;26.07;15.50;;;;;;;;;;5040810;28;20790;-77
2022/03/04 03:10:38;;;;;;;25.23;14.80;;;;;;;;;;5040819;28;20398;-78
2022/03/04 03:13:04;;;;;;;28.03;15.17;;;;;;;;;;5041738;28;20776;-78
2022/03/04 03:15:30;;;;;;;23.63;15.57;;;;;;;;;;5041150;28;20406;-78
2022/03/04 03:17:56;;;;;;;23.70;13.93;;;;;;;;;;5040658;28;20866;-77
2022/03/04 03:20:23;;;;;;;21.63;13.37;;;;;;;;;;5044435;28;20398;-77
2022/03/04 03:22:49;;;;;;;24.90;14.70;;;;;;;;;;5045141;28;20406;-77
2022/03/04 03:25:15;;;;;;;20.20;13.00;;;;;;;;;;5040807;28;20398;-77
2022/03/04 03:27:41;;;;;;;25.73;15.30;;;;;;;;;;5040666;28;20440;-77
2022/03/04 03:30:08;;;;;;;25.33;14.90;;;;;;;;;;5041404;28;20492;-77
2022/03/04 03:32:34;;;;;;;25.67;14.80;;;;;;;;;;5040692;28;20402;-77
2022/03/04 03:35:00;;;;;;;24.43;15.47;;;;;;;;;;5040532;28;20402;-77
2022/03/04 03:37:26;;;;;;;27.97;14.90;;;;;;;;;;5040344;28;20430;-77
2022/03/04 03:39:52;;;;;;;26.10;14.43;;;;;;;;;;5036695;28;20405;-77
2022/03/04 03:42:18;;;;;;;22.33;14.40;;;;;;;;;;5037904;28;20406;-77
2022/03/04 03:44:44;;;;;;;22.57;13.30;;;;;;;;;;5037822;28;20409;-77
2022/03/04 03:47:11;;;;;;;29.17;16.00;;;;;;;;;;5037651;28;20423;-78
2022/03/04 03:49:37;;;;;;;25.00;14.20;;;;;;;;;;5036970;28;20986;-78
2022/03/04 03:52:03;;;;;;;22.47;13.63;;;;;;;;;;5036830;28;20464;-76
2022/03/04 03:54:29;;;;;;;23.87;14.10;;;;;;;;;;5034663;28;20896;-76
2022/03/04 03:56:55;;;;;;;21.33;12.70;;;;;;;;;;5035612;28;20453;-76
2022/03/04 03:59:21;;;;;;;25.07;13.10;;;;;;;;;;5035590;28;20503;-77
2022/03/04 04:01:48;;;;;;;21.13;14.23;;;;;;;;;;5035812;28;20395;-77
2022/03/04 04:04:14;;;;;;;22.40;14.10;;;;;;;;;;5035538;28;20401;-77
2022/03/04 04:06:40;;;;;;;25.30;14.27;;;;;;;;;;5035804;28;20426;-77
2022/03/04 04:09:08;;;;;;;22.83;13.70;;;;;;;;;;5034085;28;20423;-77
2022/03/04 04:11:37;;;;;;;25.50;14.30;;;;;;;;;;5035490;28;20903;-77
2022/03/04 04:14:04;;;;;;;26.17;14.63;;;;;;;;;;5035363;28;20426;-77
2022/03/04 04:16:30;;;;;;;24.77;14.70;;;;;;;;;;5035293;28;20485;-77
2022/03/04 04:18:56;;;;;;;21.67;14.70;;;;;;;;;;5035574;28;20446;-77
2022/03/04 04:21:22;;;;;;;26.73;14.73;;;;;;;;;;5035377;28;20825;-77
2022/03/04 04:23:49;;;;;;;23.13;13.70;;;;;;;;;;5044415;28;20471;-76
2022/03/04 04:26:15;;;;;;;28.70;15.43;;;;;;;;;;5053902;28;20424;-78
2022/03/04 04:28:41;;;;;;;19.13;13.13;;;;;;;;;;5053109;28;20932;-77
2022/03/04 04:31:07;;;;;;;23.63;14.13;;;;;;;;;;5055071;28;20902;-77
2022/03/04 04:33:33;;;;;;;23.47;14.80;;;;;;;;;;5053820;28;20780;-77
2022/03/04 04:35:59;;;;;;;23.50;13.90;;;;;;;;;;5055071;28;20401;-77
2022/03/04 04:38:25;;;;;;;25.83;14.57;;;;;;;;;;5054960;28;20843;-77
2022/03/04 04:40:51;;;;;;;27.20;13.97;;;;;;;;;;5055137;28;20544;-77
2022/03/04 04:43:17;;;;;;;22.40;14.60;;;;;;;;;;5054992;28;20481;-77
2022/03/04 04:45:43;;;;;;;26.30;14.50;;;;;;;;;;5054867;28;20402;-77
2022/03/04 04:48:09;;;;;;;23.57;13.60;;;;;;;;;;5055307;28;21142;-77
2022/03/04 04:50:35;;;;;;;26.23;14.53;;;;;;;;;;5054633;28;20896;-77
2022/03/04 04:53:01;;;;;;;28.13;16.00;;;;;;;;;;5055261;28;20828;-77
2022/03/04 04:55:27;;;;;;;23.43;14.70;;;;;;;;;;5054684;28;20417;-77
2022/03/04 04:57:53;;;;;;;19.70;13.50;;;;;;;;;;5054503;28;21022;-77
2022/03/04 05:00:19;;;;;;;30.40;15.00;;;;;;;;;;5054280;28;20907;-76
2022/03/04 05:02:45;;;;;;;24.37;13.57;;;;;;;;;;5034403;28;20426;-77
2022/03/04 05:05:11;;;;;;;21.77;14.37;;;;;;;;;;5034678;28;20398;-77
2022/03/04 05:07:38;;;;;;;24.43;14.73;;;;;;;;;;5043813;28;20477;-77
2022/03/04 05:10:04;;;;;;;26.17;14.63;;;;;;;;;;5052991;28;20425;-77
2022/03/04 05:12:32;;;;;;;29.93;15.03;;;;;;;;;;5054685;28;20459;-77
2022/03/04 05:14:58;;;;;;;24.80;15.23;;;;;;;;;;5053210;28;20420;-77
2022/03/04 05:17:24;;;;;;;19.37;12.50;;;;;;;;;;5054002;28;20425;-77
2022/03/04 05:19:51;;;;;;;25.10;13.83;;;;;;;;;;5054350;28;20881;-77
2022/03/04 05:22:17;;;;;;;23.93;13.90;;;;;;;;;;5055467;28;20934;-78
2022/03/04 05:24:43;;;;;;;27.27;14.73;;;;;;;;;;5054724;28;20751;-76
2022/03/04 05:27:09;;;;;;;23.90;15.17;;;;;;;;;;5054685;28;20432;-76
2022/03/04 05:29:36;;;;;;;19.67;14.93;;;;;;;;;;5054419;28;20488;-78
2022/03/04 05:32:02;;;;;;;25.37;14.77;;;;;;;;;;5055189;28;20410;-78
2022/03/04 05:34:28;;;;;;;23.53;14.63;;;;;;;;;;5054233;28;20831;-78
2022/03/04 05:36:55;;;;;;;28.20;14.07;;;;;;;;;;5054359;28;20433;-77
2022/03/04 05:39:21;;;;;;;24.40;15.00;;;;;;;;;;5054218;28;20516;-77
2022/03/04 05:41:47;;;;;;;25.07;14.73;;;;;;;;;;5053611;28;20406;-78
2022/03/04 05:44:14;;;;;;;33.83;16.07;;;;;;;;;;5055449;28;20451;-77
2022/03/04 05:46:40;;;;;;;26.97;13.17;;;;;;;;;;5055422;28;20437;-76
2022/03/04 05:49:06;;;;;;;32.63;15.37;;;;;;;;;;5054036;28;20492;-76
2022/03/04 05:51:32;;;;;;;25.93;14.83;;;;;;;;;;5055991;28;20462;-78
2022/03/04 05:53:58;;;;;;;26.03;15.37;;;;;;;;;;5054763;28;20398;-77
2022/03/04 05:56:25;;;;;;;19.70;13.37;;;;;;;;;;5053938;28;20498;-78
2022/03/04 05:58:51;;;;;;;23.97;15.20;;;;;;;;;;5053621;28;20503;-77
2022/03/04 06:01:17;;;;;;;22.27;15.20;;;;;;;;;;5056807;28;20406;-77
2022/03/04 06:03:43;;;;;;;22.70;14.00;;;;;;;;;;5057300;28;20409;-77
2022/03/04 06:06:13;;;;;;;20.23;12.53;;;;;;;;;;5055252;28;20413;-77
2022/03/04 06:08:40;;;;;;;24.00;14.17;;;;;;;;;;5053409;28;20782;-77
2022/03/04 06:11:09;;;;;;;22.30;14.10;;;;;;;;;;5054087;28;20402;-77
2022/03/04 06:13:39;;;;;;;25.27;13.93;;;;;;;;;;5053250;28;20408;-77
2022/03/04 06:16:05;;;;;;;26.47;15.60;;;;;;;;;;5053429;28;20576;-77
2022/03/04 06:18:31;;;;;;;29.03;15.17;;;;;;;;;;5054271;28;20453;-77
2022/03/04 06:20:58;;;;;;;26.33;14.37;;;;;;;;;;5054271;28;20888;-77
2022/03/04 06:23:24;;;;;;;21.70;13.97;;;;;;;;;;5051672;28;20445;-77
2022/03/04 06:25:50;;;;;;;24.20;14.13;;;;;;;;;;5052130;28;20765;-76
2022/03/04 06:28:17;;;;;;;29.23;15.27;;;;;;;;;;5053283;28;20941;-76
2022/03/04 06:30:43;;;;;;;25.77;13.60;;;;;;;;;;5053435;28;20764;-75
2022/03/04 06:35:54;;;;;;;21.37;14.50;;;;;;;;;;5051530;28;20515;-74
2022/03/04 06:38:21;;;;;;;24.23;14.70;;;;;;;;;;5053019;28;20871;-77
2022/03/04 06:40:48;;;;;;;25.27;14.80;;;;;;;;;;5052038;28;20410;-77
2022/03/04 06:43:14;;;;;;;26.97;14.97;;;;;;;;;;5053043;28;20489;-76
2022/03/04 06:45:43;;;;;;;26.80;14.97;;;;;;;;;;5053044;28;20889;-76
2022/03/04 06:48:10;;;;;;;37.63;22.30;;;;;;;;;;5052929;28;20503;-76
2022/03/04 06:50:37;;;;;;;27.53;15.33;;;;;;;;;;5053033;28;20404;-76
2022/03/04 06:53:03;;;;;;;26.60;14.07;;;;;;;;;;5052985;28;20405;-76
2022/03/04 06:55:30;;;;;;;30.83;14.07;;;;;;;;;;5053184;28;20925;-76
2022/03/04 06:57:56;;;;;;;25.55;15.10;;;;;;;;;;5051889;28;20436;-77
2022/03/04 07:00:24;;;;;;;20.17;15.70;;;;;;;;;;5045423;28;20176;-76
2022/03/04 07:02:50;;;;;;;25.70;15.07;;;;;;;;;;5052780;28;20493;-75
2022/03/04 07:05:17;;;;;;;27.50;15.10;;;;;;;;;;5053162;28;20527;-76
2022/03/04 07:07:43;;;;;;;26.50;14.73;;;;;;;;;;5052729;28;20457;-76
2022/03/04 07:10:09;;;;;;;23.97;15.13;;;;;;;;;;5053182;28;20410;-76
2022/03/04 07:12:36;;;;;;;33.13;18.95;;;;;;;;;;5056700;28;20403;-76
2022/03/04 07:15:02;;;;;;;26.20;15.20;;;;;;;;;;5063204;28;20185;-75
2022/03/04 07:17:28;;;;;;;30.13;14.60;;;;;;;;;;5053509;28;20540;-76
2022/03/04 07:19:54;;;;;;;24.38;14.98;;;;;;;;;;5056285;28;20907;-76
2022/03/04 07:22:20;;;;;;;25.95;14.93;;;;;;;;;;5055903;28;20395;-76
2022/03/04 07:24:46;;;;;;;25.90;15.57;;;;;;;;;;5056719;28;20171;-76
2022/03/04 07:27:12;;;;;;;32.33;15.27;;;;;;;;;;5056455;28;20424;-76
2022/03/04 07:29:38;;;;;;;23.63;14.13;;;;;;;;;;5056948;28;20963;-77
2022/03/04 07:32:05;;;;;;;22.75;14.27;;;;;;;;;;5054278;28;20404;-77
2022/03/04 07:34:31;;;;;;;25.90;14.50;;;;;;;;;;5036455;28;20160;-77
2022/03/04 07:36:57;;;;;;;22.40;13.40;;;;;;;;;;5054749;28;20433;-77
2022/03/04 07:39:23;;;;;;;27.50;15.47;;;;;;;;;;5056523;28;20444;-77
2022/03/04 07:41:50;;;;;;;23.43;14.90;;;;;;;;;;5056062;28;20404;-77
2022/03/04 07:44:16;;;;;;;23.97;14.73;;;;;;;;;;5055429;28;20520;-74
2022/03/04 07:46:42;;;;;;;21.33;14.20;;;;;;;;;;5056128;28;20428;-74
2022/03/04 07:49:08;;;;;;;25.20;15.13;;;;;;;;;;5055182;28;20415;-74
2022/03/04 07:51:34;;;;;;;21.70;15.50;;;;;;;;;;5054803;28;20179;-74
2022/03/04 07:54:01;;;;;;;23.07;13.83;;;;;;;;;;5055212;28;20491;-75
2022/03/04 07:56:27;;;;;;;23.63;14.30;;;;;;;;;;5038301;28;20827;-75
2022/03/04 07:58:53;;;;;;;21.30;14.30;;;;;;;;;;5055609;28;21032;-75
2022/03/04 08:01:19;;;;;;;25.37;14.60;;;;;;;;;;5063278;28;20491;-75
2022/03/04 08:03:46;;;;;;;23.57;14.00;;;;;;;;;;5057847;28;20413;-74
2022/03/04 08:06:12;;;;;;;26.38;15.00;;;;;;;;;;5057301;28;20400;-75
2022/03/04 08:08:38;;;;;;;21.85;14.65;;;;;;;;;;5056822;28;20408;-75
2022/03/04 08:11:04;;;;;;;24.60;13.80;;;;;;;;;;5055466;28;20182;-75
2022/03/04 08:13:31;;;;;;;23.63;13.70;;;;;;;;;;5053262;28;20429;-75
2022/03/04 08:15:57;;;;;;;24.48;14.30;;;;;;;;;;5043057;28;20447;-75
2022/03/04 08:18:23;;;;;;;27.63;14.77;;;;;;;;;;5053730;28;20198;-74
2022/03/04 08:20:50;;;;;;;23.00;14.77;;;;;;;;;;5041706;28;20511;-76
2022/03/04 08:23:17;;;;;;;21.27;12.53;;;;;;;;;;5049216;28;20402;-75
2022/03/04 08:25:44;;;;;;;23.03;13.80;;;;;;;;;;5052723;28;20930;-76
2022/03/04 08:28:10;;;;;;;24.30;14.13;;;;;;;;;;5055761;28;20433;-73
2022/03/04 08:30:36;;;;;;;25.93;13.07;;;;;;;;;;5054361;28;20428;-75
2022/03/04 08:33:03;;;;;;;22.97;13.63;;;;;;;;;;5055353;28;20428;-75
2022/03/04 08:35:29;;;;;;;21.80;13.97;;;;;;;;;;5054754;28;20413;-76
2022/03/04 08:37:55;;;;;;;20.60;14.20;;;;;;;;;;5054696;28;20544;-75
2022/03/04 08:40:22;;;;;;;24.30;15.60;;;;;;;;;;5070460;28;20417;-74
2022/03/04 08:42:48;;;;;;;24.00;14.20;;;;;;;;;;5052987;28;20421;-75
2022/03/04 08:45:15;;;;;;;22.30;13.70;;;;;;;;;;5053941;28;20416;-74
2022/03/04 08:47:44;;;;;;;24.70;14.73;;;;;;;;;;5047117;28;20485;-75
2022/03/04 08:50:11;;;;;;;25.35;15.43;;;;;;;;;;5052125;28;20415;-74
2022/03/04 08:52:37;;;;;;;23.83;15.37;;;;;;;;;;5054297;28;20174;-75
2022/03/04 08:55:04;;;;;;;23.77;14.83;;;;;;;;;;5054275;28;20497;-74
2022/03/04 08:57:31;;;;;;;25.13;15.80;;;;;;;;;;5042102;28;20442;-74
2022/03/04 08:59:57;;;;;;;29.00;15.40;;;;;;;;;;5052361;28;20780;-76
2022/03/04 09:02:23;;;;;;;28.10;15.50;;;;;;;;;;5049067;28;20433;-75
2022/03/04 09:04:50;;;;;;;26.30;16.60;;;;;;;;;;5054989;28;20410;-75
2022/03/04 09:07:16;;;;;;;24.00;14.40;;;;;;;;;;5062444;28;20429;-74
2022/03/04 09:09:43;;;;;;;27.20;15.90;;;;;;;;;;5050239;28;20421;-75
2022/03/04 09:12:09;;;;;;;20.70;14.23;;;;;;;;;;5053342;28;20436;-74
2022/03/04 09:14:36;;;;;;;24.80;14.57;;;;;;;;;;5059406;28;20429;-75
2022/03/04 09:17:02;;;;;;;26.20;14.93;;;;;;;;;;5053171;28;20672;-75
2022/03/04 09:19:30;;;;;;;24.90;15.40;;;;;;;;;;5051430;28;20450;-75
2022/03/04 09:21:56;;;;;;;23.53;15.50;;;;;;;;;;5053051;28;20417;-75
2022/03/04 09:24:22;;;;;;;26.70;13.33;;;;;;;;;;5054081;28;20831;-75
2022/03/04 09:26:48;;;;;;;31.93;14.90;;;;;;;;;;5054419;28;20441;-76
2022/03/04 09:29:15;;;;;;;28.53;15.20;;;;;;;;;;5051795;28;20505;-74
2022/03/04 09:31:41;;;;;;;28.20;15.83;;;;;;;;;;5053237;28;20418;-75
2022/03/04 09:34:07;;;;;;;26.30;14.67;;;;;;;;;;5050937;28;20452;-75
2022/03/04 09:36:33;;;;;;;26.60;15.20;;;;;;;;;;5047510;28;20967;-76
2022/03/04 09:38:59;;;;;;;25.97;15.50;;;;;;;;;;5051405;28;20460;-76
2022/03/04 09:41:28;;;;;;;22.40;13.87;;;;;;;;;;5055210;28;20414;-76
2022/03/04 09:43:54;;;;;;;21.47;13.57;;;;;;;;;;5058678;28;20421;-76
2022/03/04 09:46:21;;;;;;;24.33;14.30;;;;;;;;;;5052098;28;20918;-75
2022/03/04 09:48:48;;;;;;;24.43;14.70;;;;;;;;;;5043643;28;20525;-77
2022/03/04 09:51:15;;;;;;;25.80;15.17;;;;;;;;;;5045170;28;20438;-76
2022/03/04 09:53:41;;;;;;;21.00;13.87;;;;;;;;;;5056554;28;20741;-76
2022/03/04 09:56:07;;;;;;;23.70;14.60;;;;;;;;;;5049714;28;20414;-76
2022/03/04 09:58:33;;;;;;;24.53;14.07;;;;;;;;;;5052737;28;20929;-76
2022/03/04 10:00:59;;;;;;;24.50;15.70;;;;;;;;;;5052607;28;20876;-76
2022/03/04 10:03:31;;;;;;;23.33;14.60;;;;;;;;;;5050248;28;20422;-75
2022/03/04 10:06:00;;;;;;;23.37;15.53;;;;;;;;;;5051224;28;20449;-75
2022/03/04 10:08:26;;;;;;;28.83;15.80;;;;;;;;;;5049893;28;20504;-75
2022/03/04 10:10:53;;;;;;;25.47;15.77;;;;;;;;;;5052426;28;20422;-76
2022/03/04 10:13:39;;;;;;;24.07;15.13;;;;;;;;;;5053101;28;20421;-76
2022/03/04 10:16:05;;;;;;;23.47;15.03;;;;;;;;;;5050380;28;20482;-76
2022/03/04 10:18:31;;;;;;;23.03;14.93;;;;;;;;;;5047676;28;20487;-76
2022/03/04 10:20:57;;;;;;;25.20;15.50;;;;;;;;;;5051431;28;20418;-76
2022/03/04 10:23:25;;;;;;;29.17;17.47;;;;;;;;;;5052214;28;20431;-75
2022/03/04 10:25:52;;;;;;;25.90;14.20;;;;;;;;;;5051368;28;20413;-76
2022/03/04 10:28:19;;;;;;;21.73;14.17;;;;;;;;;;5050808;28;20438;-75
2022/03/04 10:30:47;;;;;;;26.87;15.90;;;;;;;;;;5053631;28;20516;-76
2022/03/04 10:33:14;;;;;;;24.57;15.90;;;;;;;;;;5052669;28;20433;-78
2022/03/04 10:35:40;;;;;;;23.53;15.10;;;;;;;;;;5056433;28;20421;-78
2022/03/04 10:38:07;;;;;;;23.17;14.70;;;;;;;;;;5048031;28;20461;-77
2022/03/04 10:40:43;;;;;;;24.07;15.30;;;;;;;;;;5043922;28;20434;-77
2022/03/04 10:43:09;;;;;;;24.97;14.27;;;;;;;;;;5045546;28;20812;-77
2022/03/04 10:45:43;;;;;;;22.20;13.63;;;;;;;;;;5051287;28;20413;-79
2022/03/04 10:48:11;;;;;;;22.13;14.50;;;;;;;;;;5049430;28;20941;-78
2022/03/04 10:50:38;;;;;;;23.00;13.87;;;;;;;;;;5059504;28;20409;-79
2022/03/04 10:53:04;;;;;;;19.67;13.17;;;;;;;;;;5055314;28;20425;-78
2022/03/04 10:55:30;;;;;;;23.53;12.80;;;;;;;;;;5053341;28;20439;-77
2022/03/04 10:57:56;;;;;;;20.13;12.73;;;;;;;;;;5055201;28;20468;-77
2022/03/04 11:00:30;;;;;;;21.43;14.27;;;;;;;;;;5052196;28;20426;-79
2022/03/04 11:02:56;;;;;;;22.97;15.10;;;;;;;;;;5057250;28;20449;-78
2022/03/04 11:05:22;;;;;;;21.83;13.40;;;;;;;;;;5059112;28;20527;-78
2022/03/04 11:07:49;;;;;;;20.03;13.50;;;;;;;;;;5057721;28;20433;-78
2022/03/04 11:10:15;;;;;;;22.97;14.37;;;;;;;;;;5057076;28;20440;-79
2022/03/04 11:12:42;;;;;;;24.00;14.60;;;;;;;;;;5055487;28;20417;-78
2022/03/04 11:15:11;;;;;;;27.93;15.53;;;;;;;;;;5051094;28;20209;-77
2022/03/04 11:17:38;;;;;;;25.67;13.60;;;;;;;;;;5047898;28;20438;-77
2022/03/04 11:20:05;;;;;;;22.30;13.37;;;;;;;;;;5048837;28;20409;-77
2022/03/04 11:22:31;;;;;;;24.17;14.30;;;;;;;;;;5047559;28;20421;-76
2022/03/04 11:25:08;;;;;;;22.37;14.70;;;;;;;;;;5057282;28;20444;-78
2022/03/04 11:27:38;;;;;;;21.60;14.20;;;;;;;;;;5056481;28;20517;-78
2022/03/04 11:30:05;;;;;;;21.57;13.13;;;;;;;;;;5033517;22;20566;-74
2022/03/04 11:32:31;;;;;;;21.10;13.40;;;;;;;;;;5006935;28;20435;-74
2022/03/04 11:34:57;;;;;;;17.90;12.57;;;;;;;;;;5018602;28;20481;-75
2022/03/04 11:37:23;;;;;;;22.50;14.00;;;;;;;;;;5012353;28;20427;-76
2022/03/04 11:40:33;;;;;;;24.60;15.33;;;;;;;;;;5012427;28;20466;-75
2022/03/04 11:42:58;;;;;;;19.10;12.37;;;;;;;;;;5013234;28;20422;-75
2022/03/04 11:45:34;;;;;;;23.93;14.17;;;;;;;;;;5014804;28;20923;-76
2022/03/04 11:48:11;;;;;;;24.30;14.60;;;;;;;;;;5014110;28;20431;-75
2022/03/04 11:50:37;;;;;;;33.80;16.57;;;;;;;;;;5014474;28;20431;-76
2022/03/04 11:53:24;;;;;;;26.90;15.60;;;;;;;;;;5023848;28;20789;-76
2022/03/04 11:56:11;;;;;;;22.83;13.60;;;;;;;;;;5015934;28;20415;-76
2022/03/04 11:58:56;;;;;;;30.53;17.00;;;;;;;;;;5023297;28;20468;-76
2022/03/04 12:01:33;;;;;;;27.07;16.33;;;;;;;;;;5010770;28;20823;-76
2022/03/04 12:04:10;;;;;;;27.57;15.70;;;;;;;;;;5018343;28;20415;-76
2022/03/04 12:06:36;;;;;;;25.27;16.70;;;;;;;;;;5014769;28;20919;-76
2022/03/04 12:09:21;;;;;;;26.43;16.07;;;;;;;;;;5011308;28;20964;-76
2022/03/04 12:12:05;;;;;;;25.45;16.20;;;;;;;;;;5015546;28;20426;-75
2022/03/04 12:14:34;;;;;;;23.70;14.95;;;;;;;;;;5010792;28;21382;-75
2022/03/04 12:17:00;;;;;;;22.23;14.80;;;;;;;;;;5012600;28;20177;-75
2022/03/04 12:19:31;;;;;;;23.87;14.00;;;;;;;;;;5016031;28;20462;-76
2022/03/04 12:21:57;;;;;;;23.37;13.80;;;;;;;;;;5010599;28;20539;-76
2022/03/04 12:24:33;;;;;;;25.30;14.40;;;;;;;;;;5015818;28;20477;-76
2022/03/04 12:27:00;;;;;;;23.43;15.00;;;;;;;;;;5013795;28;20421;-76
2022/03/04 12:29:45;;;;;;;39.33;15.80;;;;;;;;;;5015774;28;20530;-75
2022/03/04 12:32:12;;;;;;;21.83;16.73;;;;;;;;;;5014424;28;20461;-75
2022/03/04 12:34:49;;;;;;;22.60;14.30;;;;;;;;;;5016376;28;20415;-76
2022/03/04 12:37:15;;;;;;;21.40;14.27;;;;;;;;;;5009812;28;20498;-75
2022/03/04 12:39:48;;;;;;;22.90;13.40;;;;;;;;;;5006500;28;20458;-75
2022/03/04 12:42:14;;;;;;;25.65;13.98;;;;;;;;;;4999540;28;20434;-74
2022/03/04 12:44:41;;;;;;;19.30;12.47;;;;;;;;;;5012172;28;20165;-76
2022/03/04 12:47:08;;;;;;;22.83;13.23;;;;;;;;;;5012793;28;22343;-77
2022/03/04 12:49:35;;;;;;;18.20;11.97;;;;;;;;;;5023365;28;20474;-80
2022/03/04 12:52:01;;;;;;;22.35;13.70;;;;;;;;;;5016971;28;20511;-75
2022/03/04 12:54:31;;;;;;;18.30;12.23;;;;;;;;;;5015754;28;20427;-76
2022/03/04 12:56:58;;;;;;;18.05;12.88;;;;;;;;;;5015897;28;20859;-77
2022/03/04 12:59:26;;;;;;;25.85;15.25;;;;;;;;;;5014971;28;20430;-77
2022/03/04 13:01:53;;;;;;;20.63;14.90;;;;;;;;;;5016089;28;20160;-76
2022/03/04 13:04:19;;;;;;;20.10;13.83;;;;;;;;;;5015512;28;20410;-78
2022/03/04 13:06:46;;;;;;;21.40;13.77;;;;;;;;;;5032090;28;20505;-76
2022/03/04 13:09:12;;;;;;;21.10;14.07;;;;;;;;;;5025399;28;21007;-76
2022/03/04 13:11:38;;;;;;;21.83;14.35;;;;;;;;;;5012854;28;20469;-76
2022/03/04 13:14:06;;;;;;;22.83;16.20;;;;;;;;;;5014448;28;20481;-77
2022/03/04 13:16:48;;;;;;;21.23;14.80;;;;;;;;;;5014867;28;20719;-76
2022/03/04 13:19:19;;;;;;;21.83;14.23;;;;;;;;;;5010632;28;20509;-76
2022/03/04 13:21:45;;;;;;;20.93;12.40;;;;;;;;;;5019846;28;20438;-77
2022/03/04 13:24:26;;;;;;;20.47;13.53;;;;;;;;;;5011991;28;20423;-76
2022/03/04 13:27:18;;;;;;;28.67;14.90;;;;;;;;;;5011878;28;20414;-75
2022/03/04 13:29:58;;;;;;;23.43;14.67;;;;;;;;;;5006289;28;20462;-75
2022/03/04 13:32:25;;;;;;;23.03;13.10;;;;;;;;;;5011041;28;20904;-77
2022/03/04 13:34:59;;;;;;;25.10;14.20;;;;;;;;;;5015103;28;20930;-76
2022/03/04 13:37:43;;;;;;;19.00;13.40;;;;;;;;;;5016077;28;20481;-77
2022/03/04 13:40:14;;;;;;;20.97;12.90;;;;;;;;;;5007760;28;20435;-76
2022/03/04 13:42:52;;;;;;;22.07;12.37;;;;;;;;;;5001670;28;20396;-76
2022/03/04 13:45:30;;;;;;;18.10;11.77;;;;;;;;;;5012750;28;20452;-77
2022/03/04 13:47:59;;;;;;;18.63;11.60;;;;;;;;;;5010372;28;20454;-76
2022/03/04 13:50:25;;;;;;;15.60;9.80;;;;;;;;;;5012656;28;20487;-76
2022/03/04 13:52:55;;;;;;;15.07;10.30;;;;;;;;;;5011647;28;20437;-77
2022/03/04 13:55:29;;;;;;;19.70;9.60;;;;;;;;;;5016804;28;20426;-76
2022/03/04 13:57:59;;;;;;;18.63;9.33;;;;;;;;;;5025431;28;20460;-77
2022/03/04 14:00:32;;;;;;;15.50;9.00;;;;;;;;;;5020720;28;20474;-76
2022/03/04 14:03:02;;;;;;;12.37;8.30;;;;;;;;;;5013555;28;20457;-76
2022/03/04 14:05:29;;;;;;;10.70;7.43;;;;;;;;;;5011515;28;20412;-76
2022/03/04 14:08:05;;;;;;;15.20;8.57;;;;;;;;;;5004813;28;20416;-76
2022/03/04 14:10:32;;;;;;;16.30;8.70;;;;;;;;;;4998648;28;20432;-76
2022/03/04 14:13:00;;;;;;;13.48;9.05;;;;;;;;;;5010957;28;20731;-76
2022/03/04 14:15:26;;;;;;;13.33;9.10;;;;;;;;;;5015657;28;20169;-77
2022/03/04 14:17:54;;;;;;;14.70;9.87;;;;;;;;;;5009046;28;20424;-76
2022/03/04 14:20:20;;;;;;;16.33;9.73;;;;;;;;;;5014788;28;21013;-77
2022/03/04 14:22:46;;;;;;;12.10;9.10;;;;;;;;;;5012755;28;20423;-77